sensor_id;sensor_type;location;lat;lon;timestamp;pressure;altitude;pressure_sealevel;temperature;humidity
63715;BME280;49858;48.956;9.076;2022-07-29T00:01:39;98539.91;;;24.66;58.86
63715;BME280;49858;48.956;9.076;2022-07-29T00:04:06;98532.91;;;24.93;58.61
63715;BME280;49858;48.956;9.076;2022-07-29T00:06:32;98526.66;;;25.11;56.71
63715;BME280;49858;48.956;9.076;2022-07-29T00:08:59;98523.72;;;25.14;56.64
63715;BME280;49858;48.956;9.076;2022-07-29T00:11:26;98523.94;;;24.85;58.58
63715;BME280;49858;48.956;9.076;2022-07-29T00:13:52;98529.47;;;24.54;58.87
63715;BME280;49858;48.956;9.076;2022-07-29T00:16:19;98516.06;;;24.58;58.98
63715;BME280;49858;48.956;9.076;2022-07-29T00:18:47;98512.03;;;24.46;58.51
63715;BME280;49858;48.956;9.076;2022-07-29T00:21:14;98511.31;;;24.68;58.30
63715;BME280;49858;48.956;9.076;2022-07-29T00:23:40;98509.66;;;24.58;59.19
63715;BME280;49858;48.956;9.076;2022-07-29T00:26:07;98508.00;;;24.47;59.61
63715;BME280;49858;48.956;9.076;2022-07-29T00:28:34;98506.16;;;24.66;58.82
63715;BME280;49858;48.956;9.076;2022-07-29T00:31:00;98506.72;;;24.61;59.56
63715;BME280;49858;48.956;9.076;2022-07-29T00:33:28;98512.00;;;24.12;60.93
63715;BME280;49858;48.956;9.076;2022-07-29T00:35:56;98502.22;;;24.04;60.63
63715;BME280;49858;48.956;9.076;2022-07-29T00:38:22;98510.81;;;24.35;59.42
63715;BME280;49858;48.956;9.076;2022-07-29T00:40:48;98513.53;;;24.26;59.17
63715;BME280;49858;48.956;9.076;2022-07-29T00:43:16;98512.34;;;24.61;59.01
63715;BME280;49858;48.956;9.076;2022-07-29T00:45:43;98503.66;;;24.21;60.19
63715;BME280;49858;48.956;9.076;2022-07-29T00:48:10;98500.97;;;24.17;60.82
63715;BME280;49858;48.956;9.076;2022-07-29T00:50:37;98499.69;;;24.44;58.88
63715;BME280;49858;48.956;9.076;2022-07-29T00:53:07;98492.59;;;24.52;59.19
63715;BME280;49858;48.956;9.076;2022-07-29T00:55:34;98497.94;;;24.37;59.01
63715;BME280;49858;48.956;9.076;2022-07-29T00:58:01;98503.09;;;24.26;59.81
63715;BME280;49858;48.956;9.076;2022-07-29T01:00:28;98492.78;;;24.23;59.97
63715;BME280;49858;48.956;9.076;2022-07-29T01:02:55;98491.34;;;23.80;60.82
63715;BME280;49858;48.956;9.076;2022-07-29T01:05:23;98479.09;;;23.61;62.10
63715;BME280;49858;48.956;9.076;2022-07-29T01:07:53;98483.28;;;23.69;61.79
63715;BME280;49858;48.956;9.076;2022-07-29T01:10:22;98486.06;;;23.44;61.47
63715;BME280;49858;48.956;9.076;2022-07-29T01:12:50;98498.03;;;23.06;64.44
63715;BME280;49858;48.956;9.076;2022-07-29T01:15:17;98490.22;;;22.56;64.88
63715;BME280;49858;48.956;9.076;2022-07-29T01:17:46;98487.22;;;22.92;63.63
63715;BME280;49858;48.956;9.076;2022-07-29T01:20:21;98495.47;;;23.12;63.44
63715;BME280;49858;48.956;9.076;2022-07-29T01:23:08;98486.41;;;23.46;61.87
63715;BME280;49858;48.956;9.076;2022-07-29T01:25:53;98486.84;;;23.32;62.02
63715;BME280;49858;48.956;9.076;2022-07-29T01:28:47;98489.44;;;23.39;61.65
63715;BME280;49858;48.956;9.076;2022-07-29T01:31:18;98494.00;;;23.07;62.78
63715;BME280;49858;48.956;9.076;2022-07-29T01:33:51;98484.13;;;22.86;63.69
63715;BME280;49858;48.956;9.076;2022-07-29T01:36:24;98487.84;;;22.83;63.16
63715;BME280;49858;48.956;9.076;2022-07-29T01:38:59;98485.13;;;23.09;62.44
63715;BME280;49858;48.956;9.076;2022-07-29T01:41:31;98482.00;;;23.07;62.18
63715;BME280;49858;48.956;9.076;2022-07-29T01:44:02;98477.63;;;23.06;62.66
63715;BME280;49858;48.956;9.076;2022-07-29T01:46:35;98474.50;;;22.87;62.83
63715;BME280;49858;48.956;9.076;2022-07-29T01:49:08;98474.38;;;22.49;63.80
63715;BME280;49858;48.956;9.076;2022-07-29T01:51:41;98476.16;;;22.85;62.70
63715;BME280;49858;48.956;9.076;2022-07-29T01:54:14;98480.91;;;22.88;62.89
63715;BME280;49858;48.956;9.076;2022-07-29T01:56:43;98479.75;;;23.14;61.77
63715;BME280;49858;48.956;9.076;2022-07-29T01:59:13;98479.28;;;22.74;63.44
63715;BME280;49858;48.956;9.076;2022-07-29T02:01:41;98475.84;;;23.25;61.96
63715;BME280;49858;48.956;9.076;2022-07-29T02:04:10;98486.88;;;23.57;61.07
63715;BME280;49858;48.956;9.076;2022-07-29T02:06:40;98471.56;;;23.33;60.91
63715;BME280;49858;48.956;9.076;2022-07-29T02:09:09;98475.50;;;23.23;60.85
63715;BME280;49858;48.956;9.076;2022-07-29T02:11:37;98478.28;;;23.23;60.80
63715;BME280;49858;48.956;9.076;2022-07-29T02:14:06;98471.09;;;22.96;61.84
63715;BME280;49858;48.956;9.076;2022-07-29T02:16:37;98476.63;;;23.51;60.83
63715;BME280;49858;48.956;9.076;2022-07-29T02:19:06;98480.53;;;23.28;60.68
63715;BME280;49858;48.956;9.076;2022-07-29T02:21:35;98481.81;;;23.39;60.46
63715;BME280;49858;48.956;9.076;2022-07-29T02:24:02;98471.56;;;23.33;61.05
63715;BME280;49858;48.956;9.076;2022-07-29T02:26:32;98479.75;;;23.27;61.24
63715;BME280;49858;48.956;9.076;2022-07-29T02:29:01;98470.50;;;23.68;59.54
63715;BME280;49858;48.956;9.076;2022-07-29T02:31:32;98469.44;;;23.37;60.46
63715;BME280;49858;48.956;9.076;2022-07-29T02:34:01;98476.41;;;23.32;60.44
63715;BME280;49858;48.956;9.076;2022-07-29T02:36:29;98483.22;;;23.06;61.31
63715;BME280;49858;48.956;9.076;2022-07-29T02:38:58;98483.09;;;22.97;62.26
63715;BME280;49858;48.956;9.076;2022-07-29T02:41:28;98482.22;;;23.38;60.93
63715;BME280;49858;48.956;9.076;2022-07-29T02:43:56;98482.44;;;23.18;60.68
63715;BME280;49858;48.956;9.076;2022-07-29T02:46:28;98474.72;;;23.35;60.78
63715;BME280;49858;48.956;9.076;2022-07-29T02:48:59;98471.69;;;23.80;58.17
63715;BME280;49858;48.956;9.076;2022-07-29T02:51:41;98472.38;;;23.84;57.87
63715;BME280;49858;48.956;9.076;2022-07-29T02:54:10;98471.25;;;23.56;59.55
63715;BME280;49858;48.956;9.076;2022-07-29T02:56:38;98473.03;;;23.50;59.37
63715;BME280;49858;48.956;9.076;2022-07-29T02:59:10;98476.63;;;23.89;58.30
63715;BME280;49858;48.956;9.076;2022-07-29T03:01:40;98475.06;;;24.01;58.12
63715;BME280;49858;48.956;9.076;2022-07-29T03:04:08;98484.16;;;24.05;58.10
63715;BME280;49858;48.956;9.076;2022-07-29T03:06:37;98478.53;;;24.05;57.17
63715;BME280;49858;48.956;9.076;2022-07-29T03:09:06;98476.06;;;22.88;61.01
63715;BME280;49858;48.956;9.076;2022-07-29T03:11:34;98480.56;;;23.15;60.46
63715;BME280;49858;48.956;9.076;2022-07-29T03:14:01;98478.78;;;23.59;59.11
63715;BME280;49858;48.956;9.076;2022-07-29T03:16:28;98488.31;;;23.49;59.32
63715;BME280;49858;48.956;9.076;2022-07-29T03:18:55;98481.78;;;23.52;58.35
63715;BME280;49858;48.956;9.076;2022-07-29T03:21:22;98481.47;;;23.76;58.44
63715;BME280;49858;48.956;9.076;2022-07-29T03:23:50;98481.69;;;23.94;58.12
63715;BME280;49858;48.956;9.076;2022-07-29T03:26:18;98484.03;;;23.32;58.77
63715;BME280;49858;48.956;9.076;2022-07-29T03:28:45;98485.03;;;23.38;58.58
63715;BME280;49858;48.956;9.076;2022-07-29T03:31:13;98483.63;;;23.71;58.37
63715;BME280;49858;48.956;9.076;2022-07-29T03:33:39;98481.31;;;22.86;60.41
63715;BME280;49858;48.956;9.076;2022-07-29T03:36:06;98474.59;;;23.13;59.74
63715;BME280;49858;48.956;9.076;2022-07-29T03:38:34;98470.66;;;22.23;61.60
63715;BME280;49858;48.956;9.076;2022-07-29T03:41:06;98472.38;;;22.50;61.43
63715;BME280;49858;48.956;9.076;2022-07-29T03:43:37;98479.69;;;22.31;62.19
63715;BME280;49858;48.956;9.076;2022-07-29T03:46:06;98479.94;;;22.36;62.03
63715;BME280;49858;48.956;9.076;2022-07-29T03:48:36;98477.25;;;22.16;61.95
63715;BME280;49858;48.956;9.076;2022-07-29T03:51:06;98474.38;;;22.49;60.83
63715;BME280;49858;48.956;9.076;2022-07-29T03:53:33;98474.66;;;22.67;60.99
63715;BME280;49858;48.956;9.076;2022-07-29T03:56:03;98474.22;;;22.40;61.13
63715;BME280;49858;48.956;9.076;2022-07-29T03:58:32;98482.97;;;22.42;61.40
63715;BME280;49858;48.956;9.076;2022-07-29T04:00:59;98479.41;;;22.25;62.39
63715;BME280;49858;48.956;9.076;2022-07-29T04:03:26;98470.13;;;22.57;61.10
63715;BME280;49858;48.956;9.076;2022-07-29T04:06:00;98476.81;;;22.47;61.39
63715;BME280;49858;48.956;9.076;2022-07-29T04:08:27;98473.19;;;22.63;61.71
63715;BME280;49858;48.956;9.076;2022-07-29T04:10:54;98484.06;;;22.32;62.19
63715;BME280;49858;48.956;9.076;2022-07-29T04:13:22;98482.84;;;22.16;62.45
63715;BME280;49858;48.956;9.076;2022-07-29T04:15:49;98494.38;;;22.35;62.29
63715;BME280;49858;48.956;9.076;2022-07-29T04:18:16;98478.03;;;23.04;60.06
63715;BME280;49858;48.956;9.076;2022-07-29T04:20:43;98485.06;;;23.25;59.67
63715;BME280;49858;48.956;9.076;2022-07-29T04:23:10;98483.59;;;23.20;59.76
63715;BME280;49858;48.956;9.076;2022-07-29T04:25:37;98477.53;;;23.35;59.55
63715;BME280;49858;48.956;9.076;2022-07-29T04:28:05;98483.59;;;23.20;59.85
63715;BME280;49858;48.956;9.076;2022-07-29T04:30:33;98482.34;;;23.21;59.93
63715;BME280;49858;48.956;9.076;2022-07-29T04:33:00;98482.19;;;23.00;60.23
63715;BME280;49858;48.956;9.076;2022-07-29T04:35:27;98483.72;;;23.30;59.84
63715;BME280;49858;48.956;9.076;2022-07-29T04:37:54;98481.47;;;23.25;59.88
63715;BME280;49858;48.956;9.076;2022-07-29T04:40:21;98484.00;;;23.19;59.88
63715;BME280;49858;48.956;9.076;2022-07-29T04:42:48;98477.66;;;23.44;58.83
63715;BME280;49858;48.956;9.076;2022-07-29T04:45:14;98482.78;;;23.07;59.91
63715;BME280;49858;48.956;9.076;2022-07-29T04:47:42;98483.44;;;22.69;60.63
63715;BME280;49858;48.956;9.076;2022-07-29T04:50:09;98485.22;;;22.76;60.88
63715;BME280;49858;48.956;9.076;2022-07-29T04:52:36;98486.22;;;22.99;60.50
63715;BME280;49858;48.956;9.076;2022-07-29T04:55:04;98487.81;;;23.12;59.25
63715;BME280;49858;48.956;9.076;2022-07-29T04:57:30;98490.06;;;23.17;59.29
63715;BME280;49858;48.956;9.076;2022-07-29T04:59:57;98484.78;;;23.19;59.66
63715;BME280;49858;48.956;9.076;2022-07-29T05:02:24;98486.06;;;23.57;59.10
63715;BME280;49858;48.956;9.076;2022-07-29T05:04:52;98494.81;;;23.33;59.18
63715;BME280;49858;48.956;9.076;2022-07-29T05:07:19;98490.09;;;23.43;59.20
63715;BME280;49858;48.956;9.076;2022-07-29T05:09:46;98485.47;;;23.24;59.71
63715;BME280;49858;48.956;9.076;2022-07-29T05:12:12;98494.13;;;23.42;59.14
63715;BME280;49858;48.956;9.076;2022-07-29T05:14:39;98497.06;;;23.26;59.81
63715;BME280;49858;48.956;9.076;2022-07-29T05:17:06;98503.31;;;23.17;60.66
63715;BME280;49858;48.956;9.076;2022-07-29T05:19:32;98502.53;;;23.16;60.51
63715;BME280;49858;48.956;9.076;2022-07-29T05:22:00;98492.56;;;23.41;60.88
63715;BME280;49858;48.956;9.076;2022-07-29T05:24:27;98493.50;;;23.63;59.79
63715;BME280;49858;48.956;9.076;2022-07-29T05:26:54;98496.28;;;23.89;58.80
63715;BME280;49858;48.956;9.076;2022-07-29T05:29:21;98497.72;;;23.42;60.33
63715;BME280;49858;48.956;9.076;2022-07-29T05:31:47;98498.09;;;23.57;60.69
63715;BME280;49858;48.956;9.076;2022-07-29T05:34:14;98505.06;;;23.91;59.38
63715;BME280;49858;48.956;9.076;2022-07-29T05:36:41;98500.91;;;23.95;59.90
63715;BME280;49858;48.956;9.076;2022-07-29T05:39:09;98509.38;;;24.30;58.62
63715;BME280;49858;48.956;9.076;2022-07-29T05:41:35;98503.41;;;24.41;58.63
63715;BME280;49858;48.956;9.076;2022-07-29T05:44:02;98501.41;;;24.63;57.74
63715;BME280;49858;48.956;9.076;2022-07-29T05:46:29;98502.31;;;24.13;59.64
63715;BME280;49858;48.956;9.076;2022-07-29T05:48:58;98503.63;;;24.34;58.99
63715;BME280;49858;48.956;9.076;2022-07-29T05:51:24;98505.28;;;24.79;57.46
63715;BME280;49858;48.956;9.076;2022-07-29T05:53:51;98510.25;;;24.96;57.86
63715;BME280;49858;48.956;9.076;2022-07-29T05:56:19;98513.78;;;24.88;58.62
63715;BME280;49858;48.956;9.076;2022-07-29T05:58:46;98513.41;;;25.20;56.65
63715;BME280;49858;48.956;9.076;2022-07-29T06:01:13;98511.97;;;25.16;56.31
63715;BME280;49858;48.956;9.076;2022-07-29T06:03:39;98507.19;;;25.04;56.89
63715;BME280;49858;48.956;9.076;2022-07-29T06:06:06;98519.16;;;25.39;55.72
63715;BME280;49858;48.956;9.076;2022-07-29T06:08:33;98517.16;;;25.48;55.80
63715;BME280;49858;48.956;9.076;2022-07-29T06:11:01;98520.00;;;25.17;57.29
63715;BME280;49858;48.956;9.076;2022-07-29T06:13:30;98532.59;;;25.66;55.41
63715;BME280;49858;48.956;9.076;2022-07-29T06:15:56;98533.09;;;25.73;54.67
63715;BME280;49858;48.956;9.076;2022-07-29T06:18:23;98526.81;;;25.69;54.46
63715;BME280;49858;48.956;9.076;2022-07-29T06:20:50;98541.34;;;25.90;55.21
63715;BME280;49858;48.956;9.076;2022-07-29T06:23:17;98540.41;;;25.62;56.26
63715;BME280;49858;48.956;9.076;2022-07-29T06:25:43;98549.38;;;25.69;55.71
63715;BME280;49858;48.956;9.076;2022-07-29T06:28:10;98545.63;;;26.13;54.54
63715;BME280;49858;48.956;9.076;2022-07-29T06:30:39;98544.63;;;25.88;55.17
63715;BME280;49858;48.956;9.076;2022-07-29T06:33:06;98546.81;;;25.93;54.68
63715;BME280;49858;48.956;9.076;2022-07-29T06:35:33;98545.50;;;26.35;54.06
63715;BME280;49858;48.956;9.076;2022-07-29T06:38:00;98543.66;;;26.32;54.00
63715;BME280;49858;48.956;9.076;2022-07-29T06:40:28;98543.50;;;26.35;53.90
63715;BME280;49858;48.956;9.076;2022-07-29T06:43:17;98546.06;;;26.61;53.69
63715;BME280;49858;48.956;9.076;2022-07-29T06:45:45;98543.09;;;26.06;54.55
63715;BME280;49858;48.956;9.076;2022-07-29T06:48:12;98551.75;;;26.20;54.22
63715;BME280;49858;48.956;9.076;2022-07-29T06:50:38;98549.03;;;26.66;53.47
63715;BME280;49858;48.956;9.076;2022-07-29T06:53:05;98548.75;;;26.83;52.53
63715;BME280;49858;48.956;9.076;2022-07-29T06:55:32;98550.09;;;26.41;53.44
63715;BME280;49858;48.956;9.076;2022-07-29T06:57:58;98550.91;;;26.51;53.11
63715;BME280;49858;48.956;9.076;2022-07-29T07:00:25;98559.69;;;26.53;53.61
63715;BME280;49858;48.956;9.076;2022-07-29T07:02:53;98561.28;;;26.72;53.76
63715;BME280;49858;48.956;9.076;2022-07-29T07:05:20;98556.44;;;26.91;52.48
63715;BME280;49858;48.956;9.076;2022-07-29T07:07:46;98561.13;;;27.13;51.71
63715;BME280;49858;48.956;9.076;2022-07-29T07:10:13;98562.06;;;26.82;53.12
63715;BME280;49858;48.956;9.076;2022-07-29T07:12:40;98563.78;;;26.70;54.12
63715;BME280;49858;48.956;9.076;2022-07-29T07:15:07;98561.25;;;27.37;52.77
63715;BME280;49858;48.956;9.076;2022-07-29T07:17:34;98560.75;;;27.99;50.53
63715;BME280;49858;48.956;9.076;2022-07-29T07:20:02;98559.94;;;28.41;49.96
63715;BME280;49858;48.956;9.076;2022-07-29T07:22:30;98571.66;;;28.24;49.69
63715;BME280;49858;48.956;9.076;2022-07-29T07:24:57;98560.44;;;28.39;48.92
63715;BME280;49858;48.956;9.076;2022-07-29T07:27:23;98559.19;;;27.98;49.87
63715;BME280;49858;48.956;9.076;2022-07-29T07:29:50;98572.78;;;27.75;49.64
63715;BME280;49858;48.956;9.076;2022-07-29T07:32:17;98564.06;;;26.45;51.24
63715;BME280;49858;48.956;9.076;2022-07-29T07:34:43;98569.41;;;27.44;50.97
63715;BME280;49858;48.956;9.076;2022-07-29T07:37:11;98565.13;;;27.67;49.43
63715;BME280;49858;48.956;9.076;2022-07-29T07:39:39;98588.09;;;27.41;49.88
63715;BME280;49858;48.956;9.076;2022-07-29T07:42:06;98572.28;;;27.16;50.31
63715;BME280;49858;48.956;9.076;2022-07-29T07:44:33;98573.94;;;28.02;49.15
63715;BME280;49858;48.956;9.076;2022-07-29T07:47:00;98574.78;;;28.74;48.07
63715;BME280;49858;48.956;9.076;2022-07-29T07:49:26;98565.69;;;29.48;46.09
63715;BME280;49858;48.956;9.076;2022-07-29T07:51:53;98566.47;;;29.63;44.41
63715;BME280;49858;48.956;9.076;2022-07-29T07:54:21;98565.09;;;29.44;43.81
63715;BME280;49858;48.956;9.076;2022-07-29T07:56:48;98566.38;;;29.72;44.57
63715;BME280;49858;48.956;9.076;2022-07-29T07:59:15;98573.16;;;29.60;44.66
63715;BME280;49858;48.956;9.076;2022-07-29T08:01:42;98569.38;;;30.13;44.17
63715;BME280;49858;48.956;9.076;2022-07-29T08:04:08;98575.03;;;30.69;42.98
63715;BME280;49858;48.956;9.076;2022-07-29T08:06:35;98567.03;;;28.60;45.67
63715;BME280;49858;48.956;9.076;2022-07-29T08:09:03;98583.66;;;29.45;43.92
63715;BME280;49858;48.956;9.076;2022-07-29T08:11:32;98574.00;;;30.87;41.72
63715;BME280;49858;48.956;9.076;2022-07-29T08:13:58;98576.47;;;30.23;42.04
63715;BME280;49858;48.956;9.076;2022-07-29T08:16:26;98574.50;;;30.29;43.23
63715;BME280;49858;48.956;9.076;2022-07-29T08:18:53;98578.56;;;28.57;45.71
63715;BME280;49858;48.956;9.076;2022-07-29T08:21:23;98570.97;;;28.63;45.62
63715;BME280;49858;48.956;9.076;2022-07-29T08:23:51;98574.69;;;29.61;42.77
63715;BME280;49858;48.956;9.076;2022-07-29T08:26:40;98569.75;;;26.72;48.49
63715;BME280;49858;48.956;9.076;2022-07-29T08:29:07;98573.97;;;26.95;47.90
63715;BME280;49858;48.956;9.076;2022-07-29T08:31:35;98578.22;;;27.09;48.00
63715;BME280;49858;48.956;9.076;2022-07-29T08:34:02;98581.38;;;27.30;46.16
63715;BME280;49858;48.956;9.076;2022-07-29T08:36:29;98575.06;;;28.62;43.75
63715;BME280;49858;48.956;9.076;2022-07-29T08:38:57;98574.03;;;30.51;41.28
63715;BME280;49858;48.956;9.076;2022-07-29T08:41:23;98584.94;;;30.73;39.88
63715;BME280;49858;48.956;9.076;2022-07-29T08:43:52;98579.97;;;28.28;43.33
63715;BME280;49858;48.956;9.076;2022-07-29T08:46:20;98578.22;;;27.09;47.32
63715;BME280;49858;48.956;9.076;2022-07-29T08:48:47;98577.00;;;27.71;46.05
63715;BME280;49858;48.956;9.076;2022-07-29T08:51:16;98578.81;;;26.76;46.88
63715;BME280;49858;48.956;9.076;2022-07-29T08:53:44;98577.38;;;26.54;47.31
63715;BME280;49858;48.956;9.076;2022-07-29T08:56:13;98577.94;;;27.16;46.77
63715;BME280;49858;48.956;9.076;2022-07-29T08:58:42;98572.59;;;28.93;44.18
63715;BME280;49858;48.956;9.076;2022-07-29T09:01:10;98570.06;;;29.19;42.74
63715;BME280;49858;48.956;9.076;2022-07-29T09:03:39;98577.28;;;26.94;47.03
63715;BME280;49858;48.956;9.076;2022-07-29T09:06:07;98578.16;;;27.64;44.81
63715;BME280;49858;48.956;9.076;2022-07-29T09:08:34;98570.84;;;27.02;44.35
63715;BME280;49858;48.956;9.076;2022-07-29T09:11:01;98577.50;;;27.69;42.94
63715;BME280;49858;48.956;9.076;2022-07-29T09:13:28;98574.94;;;27.29;42.59
63715;BME280;49858;48.956;9.076;2022-07-29T09:15:55;98574.81;;;27.84;43.27
63715;BME280;49858;48.956;9.076;2022-07-29T09:18:37;98568.91;;;28.63;39.35
63715;BME280;49858;48.956;9.076;2022-07-29T09:21:04;98575.44;;;29.17;39.48
63715;BME280;49858;48.956;9.076;2022-07-29T09:24:04;98564.28;;;30.17;35.85
63715;BME280;49858;48.956;9.076;2022-07-29T09:26:33;98570.16;;;30.14;36.56
63715;BME280;49858;48.956;9.076;2022-07-29T09:29:07;98570.97;;;29.85;39.60
63715;BME280;49858;48.956;9.076;2022-07-29T09:31:36;98569.19;;;29.87;36.78
63715;BME280;49858;48.956;9.076;2022-07-29T09:34:05;98567.81;;;29.83;36.62
63715;BME280;49858;48.956;9.076;2022-07-29T09:36:39;98568.19;;;30.05;41.40
63715;BME280;49858;48.956;9.076;2022-07-29T09:39:06;98577.00;;;29.18;37.36
63715;BME280;49858;48.956;9.076;2022-07-29T09:41:44;98574.09;;;28.32;39.24
63715;BME280;49858;48.956;9.076;2022-07-29T09:44:11;98567.91;;;28.18;39.15
63715;BME280;49858;48.956;9.076;2022-07-29T09:46:38;98567.13;;;29.88;37.51
63715;BME280;49858;48.956;9.076;2022-07-29T09:49:09;98551.50;;;27.98;39.18
63715;BME280;49858;48.956;9.076;2022-07-29T09:51:37;98565.22;;;27.12;41.69
63715;BME280;49858;48.956;9.076;2022-07-29T09:54:21;98552.97;;;27.85;40.77
63715;BME280;49858;48.956;9.076;2022-07-29T09:56:48;98553.81;;;27.67;40.23
63715;BME280;49858;48.956;9.076;2022-07-29T09:59:15;98558.53;;;28.60;39.08
63715;BME280;49858;48.956;9.076;2022-07-29T10:01:42;98547.25;;;30.17;38.75
63715;BME280;49858;48.956;9.076;2022-07-29T10:04:10;98560.78;;;27.38;41.05
63715;BME280;49858;48.956;9.076;2022-07-29T10:06:55;98553.66;;;28.03;40.03
63715;BME280;49858;48.956;9.076;2022-07-29T10:09:22;98554.56;;;28.19;39.44
63715;BME280;49858;48.956;9.076;2022-07-29T10:12:03;98555.09;;;30.08;37.05
63715;BME280;49858;48.956;9.076;2022-07-29T10:14:30;98550.06;;;31.19;34.49
63715;BME280;49858;48.956;9.076;2022-07-29T10:16:58;98550.88;;;30.03;34.53
63715;BME280;49858;48.956;9.076;2022-07-29T10:19:28;98546.13;;;29.79;35.63
63715;BME280;49858;48.956;9.076;2022-07-29T10:21:56;98546.53;;;29.43;36.01
63715;BME280;49858;48.956;9.076;2022-07-29T10:24:24;98547.84;;;30.07;34.51
63715;BME280;49858;48.956;9.076;2022-07-29T10:26:53;98546.88;;;29.95;34.93
63715;BME280;49858;48.956;9.076;2022-07-29T10:29:20;98540.63;;;29.17;35.51
63715;BME280;49858;48.956;9.076;2022-07-29T10:31:51;98546.72;;;30.95;31.76
63715;BME280;49858;48.956;9.076;2022-07-29T10:34:23;98538.81;;;32.20;29.22
63715;BME280;49858;48.956;9.076;2022-07-29T10:37:06;98541.09;;;30.39;31.53
63715;BME280;49858;48.956;9.076;2022-07-29T10:39:44;98535.59;;;32.01;31.18
63715;BME280;49858;48.956;9.076;2022-07-29T10:42:17;98544.16;;;32.44;27.99
63715;BME280;49858;48.956;9.076;2022-07-29T10:44:46;98544.47;;;30.78;30.47
63715;BME280;49858;48.956;9.076;2022-07-29T10:47:20;98526.00;;;30.48;30.74
63715;BME280;49858;48.956;9.076;2022-07-29T10:49:55;98522.31;;;29.42;32.24
63715;BME280;49858;48.956;9.076;2022-07-29T10:52:24;98523.13;;;29.92;30.99
63715;BME280;49858;48.956;9.076;2022-07-29T10:54:53;98523.84;;;29.13;32.02
63715;BME280;49858;48.956;9.076;2022-07-29T10:57:25;98528.47;;;29.55;31.35
63715;BME280;49858;48.956;9.076;2022-07-29T11:00:29;98529.13;;;29.79;31.16
63715;BME280;49858;48.956;9.076;2022-07-29T11:02:57;98522.81;;;31.27;28.90
63715;BME280;49858;48.956;9.076;2022-07-29T11:05:24;98510.50;;;31.68;28.74
63715;BME280;49858;48.956;9.076;2022-07-29T11:08:18;98513.31;;;31.10;29.37
63715;BME280;49858;48.956;9.076;2022-07-29T11:10:47;98512.81;;;31.38;29.12
63715;BME280;49858;48.956;9.076;2022-07-29T11:13:45;98503.59;;;34.62;26.25
63715;BME280;49858;48.956;9.076;2022-07-29T11:16:12;98504.84;;;33.47;25.87
63715;BME280;49858;48.956;9.076;2022-07-29T11:21:41;98509.75;;;29.93;29.94
63715;BME280;49858;48.956;9.076;2022-07-29T11:24:13;98496.25;;;34.83;25.16
63715;BME280;49858;48.956;9.076;2022-07-29T11:26:41;98500.69;;;34.79;23.98
63715;BME280;49858;48.956;9.076;2022-07-29T11:29:17;98500.75;;;30.50;27.89
63715;BME280;49858;48.956;9.076;2022-07-29T11:31:47;98513.09;;;31.40;27.35
63715;BME280;49858;48.956;9.076;2022-07-29T11:34:22;98507.50;;;31.51;28.32
63715;BME280;49858;48.956;9.076;2022-07-29T11:37:17;98504.78;;;33.36;26.28
63715;BME280;49858;48.956;9.076;2022-07-29T11:39:47;98519.66;;;31.51;29.60
63715;BME280;49858;48.956;9.076;2022-07-29T11:42:41;98514.44;;;32.56;27.15
63715;BME280;49858;48.956;9.076;2022-07-29T11:45:10;98518.94;;;32.85;29.06
63715;BME280;49858;48.956;9.076;2022-07-29T11:47:40;98518.66;;;31.02;27.89
63715;BME280;49858;48.956;9.076;2022-07-29T11:50:08;98526.44;;;31.60;27.36
63715;BME280;49858;48.956;9.076;2022-07-29T11:52:37;98525.28;;;33.23;26.46
63715;BME280;49858;48.956;9.076;2022-07-29T11:55:11;98517.44;;;32.95;26.79
63715;BME280;49858;48.956;9.076;2022-07-29T11:57:45;98508.41;;;33.30;26.60
63715;BME280;49858;48.956;9.076;2022-07-29T12:00:21;98516.13;;;31.94;27.42
63715;BME280;49858;48.956;9.076;2022-07-29T12:02:48;98514.06;;;30.44;29.38
63715;BME280;49858;48.956;9.076;2022-07-29T12:05:15;98509.63;;;31.04;28.70
63715;BME280;49858;48.956;9.076;2022-07-29T12:07:42;98511.84;;;30.53;29.65
63715;BME280;49858;48.956;9.076;2022-07-29T12:10:10;98509.19;;;31.37;28.66
63715;BME280;49858;48.956;9.076;2022-07-29T12:12:37;98514.53;;;31.87;27.58
63715;BME280;49858;48.956;9.076;2022-07-29T12:15:15;98508.56;;;31.85;27.18
63715;BME280;49858;48.956;9.076;2022-07-29T12:17:43;98507.63;;;30.64;28.75
63715;BME280;49858;48.956;9.076;2022-07-29T12:20:10;98514.28;;;29.11;31.11
63715;BME280;49858;48.956;9.076;2022-07-29T12:22:39;98517.09;;;28.96;31.39
63715;BME280;49858;48.956;9.076;2022-07-29T12:25:10;98519.00;;;28.90;35.63
63715;BME280;49858;48.956;9.076;2022-07-29T12:27:37;98515.66;;;28.76;36.52
63715;BME280;49858;48.956;9.076;2022-07-29T12:30:06;98518.78;;;29.32;35.19
63715;BME280;49858;48.956;9.076;2022-07-29T12:32:34;98510.47;;;28.99;36.31
63715;BME280;49858;48.956;9.076;2022-07-29T12:35:06;98515.53;;;28.56;36.43
63715;BME280;49858;48.956;9.076;2022-07-29T12:37:34;98520.53;;;28.37;36.72
63715;BME280;49858;48.956;9.076;2022-07-29T12:40:03;98513.44;;;28.81;35.92
63715;BME280;49858;48.956;9.076;2022-07-29T12:42:32;98512.31;;;29.02;35.04
63715;BME280;49858;48.956;9.076;2022-07-29T12:44:59;98512.53;;;29.13;35.08
63715;BME280;49858;48.956;9.076;2022-07-29T12:47:26;98507.81;;;28.33;36.02
63715;BME280;49858;48.956;9.076;2022-07-29T12:50:07;98513.78;;;28.73;35.84
63715;BME280;49858;48.956;9.076;2022-07-29T12:52:35;98515.31;;;29.87;32.06
63715;BME280;49858;48.956;9.076;2022-07-29T12:55:02;98514.22;;;30.75;30.83
63715;BME280;49858;48.956;9.076;2022-07-29T12:57:29;98512.72;;;29.10;32.07
63715;BME280;49858;48.956;9.076;2022-07-29T13:00:03;98519.06;;;29.34;31.91
63715;BME280;49858;48.956;9.076;2022-07-29T13:02:30;98510.16;;;28.97;32.66
63715;BME280;49858;48.956;9.076;2022-07-29T13:04:58;98510.56;;;29.49;31.78
63715;BME280;49858;48.956;9.076;2022-07-29T13:07:27;98514.94;;;30.50;31.66
63715;BME280;49858;48.956;9.076;2022-07-29T13:10:09;98510.13;;;29.86;31.02
63715;BME280;49858;48.956;9.076;2022-07-29T13:12:36;98524.91;;;29.31;32.49
63715;BME280;49858;48.956;9.076;2022-07-29T13:15:14;98522.63;;;28.90;32.12